Terminal Aerodrome Forecast
Issued by NWS Sterling, VA

Current Version | Previous Version | Graphics & Text | Print | Product List | Glossary On
Versions: 1 2 3 4 5 6 7 8 9 10 11 12 13 14 15 16 17 18 19 20 21
000
FTUS41 KLWX 200800 AAA
TAFIAD
TAF AMD
KIAD 200823Z 2008/2112 VRB03KT P6SM BKN140 OVC250
     FM201400 07008KT P6SM SCT250
     FM210300 09004KT P6SM FEW250=

USA.gov is the U.S. government's official web portal to all federal, state and local government web resources and services.